sensor_id;sensor_type;location;lat;lon;timestamp;pressure;altitude;pressure_sealevel;temperature;humidity
51986;BME280;38002;53.296;6.600;2023-05-12T00:02:24;102011.19;;;11.41;91.67
51986;BME280;38002;53.296;6.600;2023-05-12T00:07:24;102005.75;;;11.41;91.76
51986;BME280;38002;53.296;6.600;2023-05-12T00:12:25;102006.50;;;11.43;91.66
51986;BME280;38002;53.296;6.600;2023-05-12T00:17:25;102006.50;;;11.43;92.17
51986;BME280;38002;53.296;6.600;2023-05-12T00:22:27;102012.66;;;11.45;91.67
51986;BME280;38002;53.296;6.600;2023-05-12T00:27:27;102008.94;;;11.46;92.04
51986;BME280;38002;53.296;6.600;2023-05-12T00:32:31;102011.53;;;11.47;92.05
51986;BME280;38002;53.296;6.600;2023-05-12T00:37:32;102009.78;;;11.46;92.09
51986;BME280;38002;53.296;6.600;2023-05-12T00:42:33;102004.06;;;11.49;92.10
51986;BME280;38002;53.296;6.600;2023-05-12T00:47:34;101994.16;;;11.48;92.39
51986;BME280;38002;53.296;6.600;2023-05-12T00:52:35;102004.91;;;11.50;92.36
51986;BME280;38002;53.296;6.600;2023-05-12T00:57:35;101994.88;;;11.50;92.24
51986;BME280;38002;53.296;6.600;2023-05-12T01:02:36;101992.03;;;11.52;92.70
51986;BME280;38002;53.296;6.600;2023-05-12T01:07:38;101987.28;;;11.54;93.00
51986;BME280;38002;53.296;6.600;2023-05-12T01:12:38;101999.06;;;11.54;93.20
51986;BME280;38002;53.296;6.600;2023-05-12T01:17:41;101989.03;;;11.55;93.18
51986;BME280;38002;53.296;6.600;2023-05-12T01:22:45;101995.03;;;11.58;92.95
51986;BME280;38002;53.296;6.600;2023-05-12T01:27:47;101996.78;;;11.59;92.89
51986;BME280;38002;53.296;6.600;2023-05-12T01:32:49;102000.19;;;11.61;93.03
51986;BME280;38002;53.296;6.600;2023-05-12T01:37:49;101999.19;;;11.62;93.16
51986;BME280;38002;53.296;6.600;2023-05-12T01:42:51;102001.06;;;11.62;93.59
51986;BME280;38002;53.296;6.600;2023-05-12T01:47:51;101992.03;;;11.61;93.41
51986;BME280;38002;53.296;6.600;2023-05-12T01:52:52;102005.81;;;11.60;93.88
51986;BME280;38002;53.296;6.600;2023-05-12T01:57:52;102003.94;;;11.60;93.29
51986;BME280;38002;53.296;6.600;2023-05-12T02:02:53;102001.94;;;11.62;93.46
51986;BME280;38002;53.296;6.600;2023-05-12T02:07:53;101998.50;;;11.60;93.49
51986;BME280;38002;53.296;6.600;2023-05-12T02:12:54;102008.25;;;11.63;93.51
51986;BME280;38002;53.296;6.600;2023-05-12T02:17:54;102007.38;;;11.62;93.59
51986;BME280;38002;53.296;6.600;2023-05-12T02:22:54;102014.56;;;11.63;93.21
51986;BME280;38002;53.296;6.600;2023-05-12T02:27:55;102022.59;;;11.65;93.58
51986;BME280;38002;53.296;6.600;2023-05-12T02:32:55;102028.88;;;11.65;93.65
51986;BME280;38002;53.296;6.600;2023-05-12T02:37:56;102020.72;;;11.65;93.48
51986;BME280;38002;53.296;6.600;2023-05-12T02:42:57;102012.53;;;11.65;93.60
51986;BME280;38002;53.296;6.600;2023-05-12T02:47:57;102018.16;;;11.64;93.82
51986;BME280;38002;53.296;6.600;2023-05-12T02:52:57;102011.84;;;11.63;93.72
51986;BME280;38002;53.296;6.600;2023-05-12T02:57:58;102015.56;;;11.62;93.66
51986;BME280;38002;53.296;6.600;2023-05-12T03:02:58;102014.69;;;11.62;93.91
51986;BME280;38002;53.296;6.600;2023-05-12T03:07:59;102016.41;;;11.63;93.73
51986;BME280;38002;53.296;6.600;2023-05-12T03:12:59;102012.94;;;11.61;93.78
51986;BME280;38002;53.296;6.600;2023-05-12T03:18:00;102014.09;;;11.58;93.62
51986;BME280;38002;53.296;6.600;2023-05-12T03:23:00;102030.47;;;11.58;94.36
51986;BME280;38002;53.296;6.600;2023-05-12T03:28:01;102035.03;;;11.58;93.72
51986;BME280;38002;53.296;6.600;2023-05-12T03:33:02;102039.63;;;11.57;93.67
51986;BME280;38002;53.296;6.600;2023-05-12T03:38:03;102030.47;;;11.58;93.99
51986;BME280;38002;53.296;6.600;2023-05-12T03:43:04;102033.19;;;11.58;93.92
51986;BME280;38002;53.296;6.600;2023-05-12T03:48:04;102044.06;;;11.58;93.65
51986;BME280;38002;53.296;6.600;2023-05-12T03:53:05;102034.91;;;11.59;93.75
51986;BME280;38002;53.296;6.600;2023-05-12T03:58:06;102043.09;;;11.59;93.75
51986;BME280;38002;53.296;6.600;2023-05-12T04:03:07;102045.81;;;11.59;93.85
51986;BME280;38002;53.296;6.600;2023-05-12T04:08:08;102038.22;;;11.63;94.18
51986;BME280;38002;53.296;6.600;2023-05-12T04:13:08;102037.91;;;11.66;94.08
51986;BME280;38002;53.296;6.600;2023-05-12T04:18:08;102042.25;;;11.68;94.19
51986;BME280;38002;53.296;6.600;2023-05-12T04:23:09;102042.84;;;11.72;94.22
51986;BME280;38002;53.296;6.600;2023-05-12T04:28:09;102034.56;;;11.73;94.51
51986;BME280;38002;53.296;6.600;2023-05-12T04:33:10;102044.16;;;11.77;94.33
51986;BME280;38002;53.296;6.600;2023-05-12T04:38:11;102036.56;;;11.81;94.42
51986;BME280;38002;53.296;6.600;2023-05-12T04:43:11;102035.41;;;11.83;94.62
51986;BME280;38002;53.296;6.600;2023-05-12T04:48:11;102047.63;;;11.89;94.54
51986;BME280;38002;53.296;6.600;2023-05-12T04:53:12;102046.31;;;11.93;94.67
51986;BME280;38002;53.296;6.600;2023-05-12T04:58:12;102046.91;;;11.97;94.45
51986;BME280;38002;53.296;6.600;2023-05-12T05:03:13;102061.84;;;12.02;94.76
51986;BME280;38002;53.296;6.600;2023-05-12T05:08:13;102072.56;;;12.04;94.53
51986;BME280;38002;53.296;6.600;2023-05-12T05:13:14;102077.59;;;12.08;94.63
51986;BME280;38002;53.296;6.600;2023-05-12T05:18:15;102085.34;;;12.13;94.66
51986;BME280;38002;53.296;6.600;2023-05-12T05:23:16;102096.00;;;12.16;94.61
51986;BME280;38002;53.296;6.600;2023-05-12T05:28:16;102092.00;;;12.20;94.94
51986;BME280;38002;53.296;6.600;2023-05-12T05:33:17;102094.28;;;12.24;94.73
51986;BME280;38002;53.296;6.600;2023-05-12T05:38:17;102094.84;;;12.28;94.85
51986;BME280;38002;53.296;6.600;2023-05-12T05:43:18;102103.47;;;12.33;95.33
51986;BME280;38002;53.296;6.600;2023-05-12T05:48:18;102119.25;;;12.39;95.03
51986;BME280;38002;53.296;6.600;2023-05-12T05:53:19;102116.97;;;12.44;95.10
51986;BME280;38002;53.296;6.600;2023-05-12T05:58:20;102110.94;;;12.50;94.89
51986;BME280;38002;53.296;6.600;2023-05-12T06:03:22;102105.75;;;12.57;95.30
51986;BME280;38002;53.296;6.600;2023-05-12T06:08:22;102122.56;;;12.62;96.76
51986;BME280;38002;53.296;6.600;2023-05-12T06:13:22;102117.38;;;12.68;95.16
51986;BME280;38002;53.296;6.600;2023-05-12T06:18:23;102115.81;;;12.76;95.57
51986;BME280;38002;53.296;6.600;2023-05-12T06:23:23;102129.72;;;12.82;95.50
51986;BME280;38002;53.296;6.600;2023-05-12T06:28:24;102131.56;;;12.91;95.90
51986;BME280;38002;53.296;6.600;2023-05-12T06:33:24;102148.81;;;13.01;95.78
51986;BME280;38002;53.296;6.600;2023-05-12T06:38:25;102168.34;;;13.16;95.63
51986;BME280;38002;53.296;6.600;2023-05-12T06:43:25;102153.91;;;13.33;96.07
51986;BME280;38002;53.296;6.600;2023-05-12T06:48:26;102155.50;;;13.45;95.57
51986;BME280;38002;53.296;6.600;2023-05-12T06:53:27;102165.91;;;13.59;95.83
51986;BME280;38002;53.296;6.600;2023-05-12T06:58:27;102169.34;;;13.71;96.04
51986;BME280;38002;53.296;6.600;2023-05-12T07:03:30;102157.03;;;13.85;95.85
51986;BME280;38002;53.296;6.600;2023-05-12T07:08:31;102155.81;;;13.97;95.91
51986;BME280;38002;53.296;6.600;2023-05-12T07:13:32;102159.34;;;14.07;95.35
51986;BME280;38002;53.296;6.600;2023-05-12T07:18:32;102170.38;;;14.15;95.73
51986;BME280;38002;53.296;6.600;2023-05-12T07:23:33;102167.44;;;14.26;95.38
51986;BME280;38002;53.296;6.600;2023-05-12T07:28:34;102172.72;;;14.37;95.27
51986;BME280;38002;53.296;6.600;2023-05-12T07:33:36;102174.53;;;14.46;95.28
51986;BME280;38002;53.296;6.600;2023-05-12T07:38:36;102182.44;;;14.49;95.05
51986;BME280;38002;53.296;6.600;2023-05-12T07:43:37;102188.47;;;14.53;95.25
51986;BME280;38002;53.296;6.600;2023-05-12T07:48:37;102190.75;;;14.58;94.98
51986;BME280;38002;53.296;6.600;2023-05-12T07:53:39;102185.47;;;14.64;95.14
51986;BME280;38002;53.296;6.600;2023-05-12T07:58:39;102188.63;;;14.69;95.08
51986;BME280;38002;53.296;6.600;2023-05-12T08:03:40;102195.72;;;14.80;95.07
51986;BME280;38002;53.296;6.600;2023-05-12T08:08:40;102192.91;;;14.89;94.61
51986;BME280;38002;53.296;6.600;2023-05-12T08:13:41;102185.31;;;15.01;94.38
51986;BME280;38002;53.296;6.600;2023-05-12T08:18:41;102186.44;;;15.16;94.26
51986;BME280;38002;53.296;6.600;2023-05-12T08:23:41;102202.00;;;15.33;94.44
51986;BME280;38002;53.296;6.600;2023-05-12T08:28:42;102206.97;;;15.56;94.30
51986;BME280;38002;53.296;6.600;2023-05-12T08:33:43;102213.31;;;15.82;94.16
51986;BME280;38002;53.296;6.600;2023-05-12T08:38:43;102211.19;;;16.10;93.50
51986;BME280;38002;53.296;6.600;2023-05-12T08:43:48;102210.31;;;16.43;92.50
51986;BME280;38002;53.296;6.600;2023-05-12T08:48:50;102206.97;;;16.90;92.48
51986;BME280;38002;53.296;6.600;2023-05-12T08:53:51;102211.97;;;17.18;88.47
51986;BME280;38002;53.296;6.600;2023-05-12T08:58:53;102207.81;;;17.39;90.79
51986;BME280;38002;53.296;6.600;2023-05-12T09:03:54;102207.47;;;17.66;89.89
51986;BME280;38002;53.296;6.600;2023-05-12T09:08:58;102207.91;;;17.94;89.98
51986;BME280;38002;53.296;6.600;2023-05-12T09:14:02;102211.94;;;18.14;89.19
51986;BME280;38002;53.296;6.600;2023-05-12T09:19:03;102207.91;;;18.33;89.11
51986;BME280;38002;53.296;6.600;2023-05-12T09:24:05;102215.44;;;18.39;88.49
51986;BME280;38002;53.296;6.600;2023-05-12T09:29:06;102225.41;;;18.40;87.80
51986;BME280;38002;53.296;6.600;2023-05-12T09:34:08;102226.72;;;18.52;87.25
51986;BME280;38002;53.296;6.600;2023-05-12T09:39:09;102227.66;;;18.75;87.81
51986;BME280;38002;53.296;6.600;2023-05-12T09:44:13;102230.00;;;19.09;87.10
51986;BME280;38002;53.296;6.600;2023-05-12T09:49:19;102231.00;;;19.54;85.61
51986;BME280;38002;53.296;6.600;2023-05-12T09:54:38;102224.97;;;19.87;75.09
51986;BME280;38002;53.296;6.600;2023-05-12T09:59:39;102235.88;;;20.25;84.64
51986;BME280;38002;53.296;6.600;2023-05-12T10:04:52;102240.63;;;20.60;81.72
51986;BME280;38002;53.296;6.600;2023-05-12T10:09:58;102229.38;;;20.62;81.49
51986;BME280;38002;53.296;6.600;2023-05-12T10:15:01;102226.94;;;20.52;83.10
51986;BME280;38002;53.296;6.600;2023-05-12T10:20:02;102234.69;;;20.63;82.88
51986;BME280;38002;53.296;6.600;2023-05-12T10:25:07;102233.03;;;20.83;82.17
51986;BME280;38002;53.296;6.600;2023-05-12T10:30:09;102236.16;;;21.16;81.95
51986;BME280;38002;53.296;6.600;2023-05-12T10:35:10;102242.84;;;21.50;81.77
51986;BME280;38002;53.296;6.600;2023-05-12T10:40:22;102250.88;;;21.94;79.64
51986;BME280;38002;53.296;6.600;2023-05-12T10:45:23;102237.44;;;22.32;79.54
51986;BME280;38002;53.296;6.600;2023-05-12T10:50:27;102234.53;;;22.53;78.94
51986;BME280;38002;53.296;6.600;2023-05-12T10:55:33;102243.78;;;22.67;77.37
51986;BME280;38002;53.296;6.600;2023-05-12T11:00:43;102241.31;;;22.91;76.58
51986;BME280;38002;53.296;6.600;2023-05-12T11:05:44;102236.00;;;22.96;76.76
51986;BME280;38002;53.296;6.600;2023-05-12T11:10:45;102237.31;;;23.07;77.60
51986;BME280;38002;53.296;6.600;2023-05-12T11:15:47;102229.63;;;23.22;70.62
51986;BME280;38002;53.296;6.600;2023-05-12T11:20:48;102232.88;;;23.52;75.98
51986;BME280;38002;53.296;6.600;2023-05-12T11:25:49;102241.41;;;23.70;75.30
51986;BME280;38002;53.296;6.600;2023-05-12T11:30:52;102232.44;;;23.81;74.41
51986;BME280;38002;53.296;6.600;2023-05-12T11:35:53;102235.19;;;23.94;74.22
51986;BME280;38002;53.296;6.600;2023-05-12T11:40:53;102236.44;;;24.05;73.20
51986;BME280;38002;53.296;6.600;2023-05-12T11:45:54;102248.03;;;23.76;72.93
51986;BME280;38002;53.296;6.600;2023-05-12T11:50:55;102248.03;;;23.63;73.20
51986;BME280;38002;53.296;6.600;2023-05-12T11:55:56;102238.63;;;23.90;nan
51986;BME280;38002;53.296;6.600;2023-05-12T12:01:07;102249.69;;;24.16;67.68
51986;BME280;38002;53.296;6.600;2023-05-12T12:06:09;102243.16;;;24.49;71.00
51986;BME280;38002;53.296;6.600;2023-05-12T12:11:10;102245.44;;;24.65;69.48
51986;BME280;38002;53.296;6.600;2023-05-12T12:16:10;102247.53;;;24.76;68.95
51986;BME280;38002;53.296;6.600;2023-05-12T12:21:11;102256.75;;;24.70;67.88
51986;BME280;38002;53.296;6.600;2023-05-12T12:26:11;102251.66;;;24.67;67.88
51986;BME280;38002;53.296;6.600;2023-05-12T12:31:12;102249.41;;;24.82;67.16
51986;BME280;38002;53.296;6.600;2023-05-12T12:36:13;102253.22;;;24.94;66.78
51986;BME280;38002;53.296;6.600;2023-05-12T12:41:14;102254.63;;;25.10;66.87
51986;BME280;38002;53.296;6.600;2023-05-12T12:46:14;102251.00;;;25.09;66.79
51986;BME280;38002;53.296;6.600;2023-05-12T12:51:14;102249.28;;;25.08;61.60
51986;BME280;38002;53.296;6.600;2023-05-12T12:56:15;102256.47;;;25.22;66.71
51986;BME280;38002;53.296;6.600;2023-05-12T13:01:16;102252.94;;;25.34;65.72
51986;BME280;38002;53.296;6.600;2023-05-12T13:06:17;102258.97;;;25.30;65.03
51986;BME280;38002;53.296;6.600;2023-05-12T13:11:17;102261.56;;;25.32;65.21
51986;BME280;38002;53.296;6.600;2023-05-12T13:16:18;102263.75;;;25.23;57.88
51986;BME280;38002;53.296;6.600;2023-05-12T13:21:18;102259.84;;;25.31;65.45
51986;BME280;38002;53.296;6.600;2023-05-12T13:26:19;102263.50;;;25.25;60.90
51986;BME280;38002;53.296;6.600;2023-05-12T13:31:20;102259.63;;;25.33;65.15
51986;BME280;38002;53.296;6.600;2023-05-12T13:36:20;102265.88;;;25.28;58.22
51986;BME280;38002;53.296;6.600;2023-05-12T13:41:21;102258.03;;;25.43;65.89
51986;BME280;38002;53.296;6.600;2023-05-12T13:46:21;102262.28;;;25.46;65.03
51986;BME280;38002;53.296;6.600;2023-05-12T13:51:22;102257.63;;;25.40;59.81
51986;BME280;38002;53.296;6.600;2023-05-12T13:56:22;102261.50;;;25.39;64.69
51986;BME280;38002;53.296;6.600;2023-05-12T14:01:23;102258.31;;;25.35;57.40
51986;BME280;38002;53.296;6.600;2023-05-12T14:06:24;102255.63;;;25.47;64.01
51986;BME280;38002;53.296;6.600;2023-05-12T14:11:24;102254.88;;;25.33;54.26
51986;BME280;38002;53.296;6.600;2023-05-12T14:16:25;102251.38;;;25.19;62.71
51986;BME280;38002;53.296;6.600;2023-05-12T14:21:26;102250.09;;;25.15;63.11
51986;BME280;38002;53.296;6.600;2023-05-12T14:26:28;102251.09;;;24.96;55.05
51986;BME280;38002;53.296;6.600;2023-05-12T14:31:28;102254.13;;;24.88;62.51
51986;BME280;38002;53.296;6.600;2023-05-12T14:36:29;102254.50;;;24.54;59.57
51986;BME280;38002;53.296;6.600;2023-05-12T14:41:30;102253.97;;;24.70;63.45
51986;BME280;38002;53.296;6.600;2023-05-12T14:46:30;102258.53;;;24.51;58.49
51986;BME280;38002;53.296;6.600;2023-05-12T14:51:30;102265.50;;;24.29;63.48
51986;BME280;38002;53.296;6.600;2023-05-12T14:56:31;102267.91;;;23.79;63.75
51986;BME280;38002;53.296;6.600;2023-05-12T15:01:33;102271.31;;;23.62;63.68
51986;BME280;38002;53.296;6.600;2023-05-12T15:06:33;102274.94;;;23.42;64.32
51986;BME280;38002;53.296;6.600;2023-05-12T15:11:34;102275.56;;;23.25;63.48
51986;BME280;38002;53.296;6.600;2023-05-12T15:16:36;102284.97;;;23.37;64.05
51986;BME280;38002;53.296;6.600;2023-05-12T15:21:36;102280.72;;;23.47;63.34
51986;BME280;38002;53.296;6.600;2023-05-12T15:26:37;102280.00;;;23.19;62.96
51986;BME280;38002;53.296;6.600;2023-05-12T15:31:37;102284.63;;;22.92;63.93
51986;BME280;38002;53.296;6.600;2023-05-12T15:36:38;102284.50;;;22.66;64.72
51986;BME280;38002;53.296;6.600;2023-05-12T15:41:40;102285.28;;;22.47;64.54
51986;BME280;38002;53.296;6.600;2023-05-12T15:46:41;102291.13;;;22.24;65.60
51986;BME280;38002;53.296;6.600;2023-05-12T15:51:42;102288.38;;;21.96;65.74
51986;BME280;38002;53.296;6.600;2023-05-12T15:56:42;102289.34;;;21.82;66.21
51986;BME280;38002;53.296;6.600;2023-05-12T16:01:43;102303.22;;;21.61;66.05
51986;BME280;38002;53.296;6.600;2023-05-12T16:06:43;102305.91;;;21.33;66.37
51986;BME280;38002;53.296;6.600;2023-05-12T16:11:44;102302.38;;;21.03;66.08
51986;BME280;38002;53.296;6.600;2023-05-12T16:16:45;102303.94;;;20.91;66.90
51986;BME280;38002;53.296;6.600;2023-05-12T16:21:48;102308.00;;;20.74;67.25
51986;BME280;38002;53.296;6.600;2023-05-12T16:26:48;102306.94;;;20.75;67.49
51986;BME280;38002;53.296;6.600;2023-05-12T16:31:49;102301.78;;;20.72;66.96
51986;BME280;38002;53.296;6.600;2023-05-12T16:36:50;102298.38;;;20.55;67.26
51986;BME280;38002;53.296;6.600;2023-05-12T16:41:50;102300.31;;;20.40;67.36
51986;BME280;38002;53.296;6.600;2023-05-12T16:46:50;102303.91;;;20.26;67.58
51986;BME280;38002;53.296;6.600;2023-05-12T16:51:51;102301.81;;;20.13;68.03
51986;BME280;38002;53.296;6.600;2023-05-12T16:56:52;102300.75;;;20.00;68.04
51986;BME280;38002;53.296;6.600;2023-05-12T17:01:52;102306.75;;;19.88;68.05
51986;BME280;38002;53.296;6.600;2023-05-12T17:06:53;102305.28;;;19.78;68.25
51986;BME280;38002;53.296;6.600;2023-05-12T17:11:53;102306.31;;;19.62;68.15
51986;BME280;38002;53.296;6.600;2023-05-12T17:16:54;102306.06;;;19.49;68.67
51986;BME280;38002;53.296;6.600;2023-05-12T17:21:54;102314.13;;;19.28;68.44
51986;BME280;38002;53.296;6.600;2023-05-12T17:26:55;102326.63;;;19.16;69.22
51986;BME280;38002;53.296;6.600;2023-05-12T17:31:56;102326.00;;;19.06;69.11
51986;BME280;38002;53.296;6.600;2023-05-12T17:36:57;102326.25;;;18.96;69.32
51986;BME280;38002;53.296;6.600;2023-05-12T17:41:58;102331.97;;;18.86;69.48
51986;BME280;38002;53.296;6.600;2023-05-12T17:46:59;102334.09;;;18.76;69.12
51986;BME280;38002;53.296;6.600;2023-05-12T17:51:59;102326.91;;;18.67;69.51
51986;BME280;38002;53.296;6.600;2023-05-12T17:57:00;102332.97;;;18.63;69.47
51986;BME280;38002;53.296;6.600;2023-05-12T18:02:01;102347.28;;;18.50;69.53
51986;BME280;38002;53.296;6.600;2023-05-12T18:07:02;102341.47;;;18.37;69.47
51986;BME280;38002;53.296;6.600;2023-05-12T18:12:03;102350.78;;;18.28;69.24
51986;BME280;38002;53.296;6.600;2023-05-12T18:17:03;102365.97;;;18.16;68.72
51986;BME280;38002;53.296;6.600;2023-05-12T18:22:04;102365.63;;;18.02;68.86
51986;BME280;38002;53.296;6.600;2023-05-12T18:27:05;102370.81;;;17.89;68.86
51986;BME280;38002;53.296;6.600;2023-05-12T18:32:05;102371.34;;;17.77;68.66
51986;BME280;38002;53.296;6.600;2023-05-12T18:37:06;102382.66;;;17.65;68.72
51986;BME280;38002;53.296;6.600;2023-05-12T18:42:08;102373.53;;;17.57;69.11
51986;BME280;38002;53.296;6.600;2023-05-12T18:47:08;102381.97;;;17.47;69.28
51986;BME280;38002;53.296;6.600;2023-05-12T18:52:08;102386.75;;;17.29;69.85
51986;BME280;38002;53.296;6.600;2023-05-12T18:57:09;102389.94;;;17.08;69.44
51986;BME280;38002;53.296;6.600;2023-05-12T19:02:10;102394.69;;;16.90;70.04
51986;BME280;38002;53.296;6.600;2023-05-12T19:07:11;102402.84;;;16.74;70.32
51986;BME280;38002;53.296;6.600;2023-05-12T19:12:14;102410.16;;;16.57;70.35
51986;BME280;38002;53.296;6.600;2023-05-12T19:17:15;102409.50;;;16.38;70.48
51986;BME280;38002;53.296;6.600;2023-05-12T19:22:16;102414.19;;;16.19;70.44
51986;BME280;38002;53.296;6.600;2023-05-12T19:27:16;102418.84;;;16.01;70.82
51986;BME280;38002;53.296;6.600;2023-05-12T19:32:17;102430.16;;;15.80;70.71
51986;BME280;38002;53.296;6.600;2023-05-12T19:37:18;102438.09;;;15.66;70.95
51986;BME280;38002;53.296;6.600;2023-05-12T19:42:19;102429.97;;;15.47;70.96
51986;BME280;38002;53.296;6.600;2023-05-12T19:47:19;102436.31;;;15.29;70.99
51986;BME280;38002;53.296;6.600;2023-05-12T19:52:24;102440.59;;;15.14;70.84
51986;BME280;38002;53.296;6.600;2023-05-12T19:57:25;102445.56;;;15.01;71.40
51986;BME280;38002;53.296;6.600;2023-05-12T20:02:25;102452.56;;;14.86;71.22
51986;BME280;38002;53.296;6.600;2023-05-12T20:07:30;102453.03;;;14.72;71.26
51986;BME280;38002;53.296;6.600;2023-05-12T20:12:30;102460.03;;;14.57;71.59
51986;BME280;38002;53.296;6.600;2023-05-12T20:17:30;102465.97;;;14.42;71.44
51986;BME280;38002;53.296;6.600;2023-05-12T20:22:31;102462.81;;;14.28;71.15
51986;BME280;38002;53.296;6.600;2023-05-12T20:27:32;102470.03;;;14.19;71.56
51986;BME280;38002;53.296;6.600;2023-05-12T20:32:32;102464.41;;;14.11;71.72
51986;BME280;38002;53.296;6.600;2023-05-12T20:37:33;102474.50;;;14.01;70.97
51986;BME280;38002;53.296;6.600;2023-05-12T20:42:34;102484.00;;;13.97;71.55
51986;BME280;38002;53.296;6.600;2023-05-12T20:47:34;102479.09;;;13.91;71.15
51986;BME280;38002;53.296;6.600;2023-05-12T20:52:37;102484.31;;;13.84;71.32
51986;BME280;38002;53.296;6.600;2023-05-12T20:57:38;102482.13;;;13.78;71.65
51986;BME280;38002;53.296;6.600;2023-05-12T21:02:39;102488.31;;;13.71;71.84
51986;BME280;38002;53.296;6.600;2023-05-12T21:07:39;102481.69;;;13.63;71.75
51986;BME280;38002;53.296;6.600;2023-05-12T21:12:40;102480.53;;;13.56;72.03
51986;BME280;38002;53.296;6.600;2023-05-12T21:17:41;102476.66;;;13.49;72.24
51986;BME280;38002;53.296;6.600;2023-05-12T21:22:41;102485.81;;;13.39;72.22
51986;BME280;38002;53.296;6.600;2023-05-12T21:27:42;102491.56;;;13.36;72.62
51986;BME280;38002;53.296;6.600;2023-05-12T21:32:42;102488.25;;;13.32;72.73
51986;BME280;38002;53.296;6.600;2023-05-12T21:37:43;102485.09;;;13.27;72.99
51986;BME280;38002;53.296;6.600;2023-05-12T21:42:44;102499.28;;;13.21;73.67
51986;BME280;38002;53.296;6.600;2023-05-12T21:47:44;102502.31;;;13.18;73.67
51986;BME280;38002;53.296;6.600;2023-05-12T21:52:48;102496.25;;;13.14;73.79
51986;BME280;38002;53.296;6.600;2023-05-12T21:57:49;102496.66;;;13.10;74.40
51986;BME280;38002;53.296;6.600;2023-05-12T22:02:50;102495.91;;;12.98;74.11
51986;BME280;38002;53.296;6.600;2023-05-12T22:07:50;102500.03;;;12.93;74.42
51986;BME280;38002;53.296;6.600;2023-05-12T22:12:51;102499.97;;;12.83;74.62
51986;BME280;38002;53.296;6.600;2023-05-12T22:17:52;102508.00;;;12.75;74.44
51986;BME280;38002;53.296;6.600;2023-05-12T22:22:52;102504.91;;;12.68;75.04
51986;BME280;38002;53.296;6.600;2023-05-12T22:27:53;102508.22;;;12.62;75.16
51986;BME280;38002;53.296;6.600;2023-05-12T22:32:54;102504.91;;;12.59;75.29
51986;BME280;38002;53.296;6.600;2023-05-12T22:37:54;102499.97;;;12.53;75.52
51986;BME280;38002;53.296;6.600;2023-05-12T22:42:55;102497.78;;;12.47;76.05
51986;BME280;38002;53.296;6.600;2023-05-12T22:47:55;102498.19;;;12.42;76.16
51986;BME280;38002;53.296;6.600;2023-05-12T22:52:56;102499.72;;;12.35;76.16
51986;BME280;38002;53.296;6.600;2023-05-12T22:57:56;102498.84;;;12.35;76.28
51986;BME280;38002;53.296;6.600;2023-05-12T23:02:57;102498.13;;;12.33;76.37
51986;BME280;38002;53.296;6.600;2023-05-12T23:07:59;102498.41;;;12.30;76.75
51986;BME280;38002;53.296;6.600;2023-05-12T23:12:59;102489.88;;;12.23;76.59
51986;BME280;38002;53.296;6.600;2023-05-12T23:18:00;102495.84;;;12.17;76.91
51986;BME280;38002;53.296;6.600;2023-05-12T23:23:00;102506.16;;;12.13;77.05
51986;BME280;38002;53.296;6.600;2023-05-12T23:28:01;102502.13;;;12.08;76.91
51986;BME280;38002;53.296;6.600;2023-05-12T23:33:01;102504.09;;;12.06;77.14
51986;BME280;38002;53.296;6.600;2023-05-12T23:38:02;102499.78;;;12.03;77.18
51986;BME280;38002;53.296;6.600;2023-05-12T23:43:02;102493.59;;;12.01;77.08
51986;BME280;38002;53.296;6.600;2023-05-12T23:48:03;102496.44;;;12.00;77.42
51986;BME280;38002;53.296;6.600;2023-05-12T23:53:03;102490.53;;;11.95;77.64
51986;BME280;38002;53.296;6.600;2023-05-12T23:58:04;102494.53;;;11.91;77.67
